CheckWX is a tool to help pilots better visualize weather data.  It is not intended as a substitute for an official pre-flight weather briefing.

01:54:20 UTC

EGPF TAF
Glasgow International Airport
Glasgow, United Kingdom
TAF EGPF 232302Z 2400/2424 09007KT 9999 FEW015 TEMPO 2400/2411 4000 BR PROB30 2400/2409 0300 FG VV/// TEMPO 2412/2424 7000

Feb-24@
00:00 UTC

Feb-24 @ 00:00 UTC

Feb-25@
00:00 UTC

Feb-25 @ 00:00 UTC

TAF EGPF 232302Z 2400/2424 09007KT 9999 FEW015
Wind
  • 090° at 7 KTS
Cloud Levels
  • Few at 1,500' AGL

Feb-24@
00:00 UTC

Feb-24 @ 00:00 UTC

Feb-24@
09:00 UTC

Feb-24 @ 09:00 UTC

PROB30 2400/2409 0300 FG VV///

Probable - 30% Likelihood

Probable - 30% Likelihood during this time.

Conditions
Fog

Feb-24@
00:00 UTC

Feb-24 @ 00:00 UTC

Feb-24@
11:00 UTC

Feb-24 @ 11:00 UTC

TEMPO 2400/2411 4000 BR

Temporary

Temporary Changes expected for less than half the time period

Conditions
Mist

Feb-24@
12:00 UTC

Feb-24 @ 12:00 UTC

Feb-25@
00:00 UTC

Feb-25 @ 00:00 UTC

TEMPO 2412/2424 7000

Temporary

Temporary Changes expected for less than half the time period